Time;durP1;ratioP1;P1;durP2;ratioP2;P2;SDS_P1;SDS_P2;PMS_P1;PMS_P2;Temp;Humidity;BMP_temperature;BMP_pressure;BME280_temperature;BME280_humidity;BME280_pressure;Samples;Min_cycle;Max_cycle;Signal;HPM_P1;HPM_P2
2023/09/12 00:00:48;;;;;;;;;;;23.10;99.90;;;;;;5090860;28;20011;-70
2023/09/12 00:03:14;;;;;;;;;;;23.10;99.90;;;;;;5090691;28;19908;-70
2023/09/12 00:05:40;;;;;;;;;;;23.20;99.90;;;;;;5090613;28;19969;-71
2023/09/12 00:08:06;;;;;;;;;;;23.30;99.90;;;;;;5072131;28;19908;-73
2023/09/12 00:10:32;;;;;;;;;;;23.40;99.90;;;;;;5090815;28;20264;-71
2023/09/12 00:13:02;;;;;;;;;;;23.50;99.90;;;;;;5090545;28;19966;-71
2023/09/12 00:15:28;;;;;;;;;;;23.50;99.90;;;;;;5090681;28;19972;-71
2023/09/12 00:17:54;;;;;;;;;;;23.60;99.90;;;;;;5090751;28;19923;-71
2023/09/12 00:20:19;;;;;;;;;;;23.70;99.90;;;;;;5090704;28;19912;-71
2023/09/12 00:22:46;;;;;;;;;;;23.60;99.90;;;;;;5090372;28;19908;-71
2023/09/12 00:25:11;;;;;;;;;;;23.60;99.90;;;;;;5090828;28;19987;-71
2023/09/12 00:27:37;;;;;;;;;;;23.60;99.90;;;;;;5090524;28;19908;-71
2023/09/12 00:30:03;;;;;;;;;;;23.50;99.90;;;;;;5072159;28;20365;-71
2023/09/12 00:32:29;;;;;;;;;;;23.50;99.90;;;;;;5093566;28;19908;-71
2023/09/12 00:34:55;;;;;;;;;;;23.40;99.90;;;;;;5094659;28;19914;-72
2023/09/12 00:37:21;;;;;;;;;;;23.40;99.90;;;;;;5094355;28;19987;-71
2023/09/12 00:39:47;;;;;;;;;;;23.40;99.90;;;;;;5094603;28;20004;-71
2023/09/12 00:42:13;;;;;;;;;;;23.40;99.90;;;;;;5076062;28;19970;-71
2023/09/12 00:44:38;;;;;;;;;;;23.50;99.90;;;;;;5094427;28;19912;-71
2023/09/12 00:47:05;;;;;;;;;;;23.50;99.90;;;;;;5094366;28;19970;-71
2023/09/12 00:49:31;;;;;;;;;;;23.40;99.90;;;;;;5094288;28;19915;-71
2023/09/12 00:51:58;;;;;;;;;;;23.40;99.90;;;;;;5075541;28;19981;-71
2023/09/12 00:54:24;;;;;;;;;;;23.40;99.90;;;;;;5094119;28;19927;-72
2023/09/12 00:56:50;;;;;;;;;;;23.30;99.90;;;;;;5094561;28;19908;-71
2023/09/12 00:59:18;;;;;;;;;;;23.30;99.90;;;;;;5075987;28;19916;-71
2023/09/12 01:01:43;;;;;;;;;;;23.20;99.90;;;;;;5094125;28;20010;-71
2023/09/12 01:04:10;;;;;;;;;;;23.20;99.90;;;;;;5094003;28;19912;-71
2023/09/12 01:06:37;;;;;;;;;;;23.20;99.90;;;;;;5093769;28;20248;-71
2023/09/12 01:09:02;;;;;;;;;;;23.30;99.90;;;;;;5094028;28;20079;-71
2023/09/12 01:11:28;;;;;;;;;;;23.30;99.90;;;;;;5093606;28;20388;-71
2023/09/12 01:13:54;;;;;;;;;;;23.30;99.90;;;;;;5093529;28;19908;-71
2023/09/12 01:16:20;;;;;;;;;;;23.30;99.90;;;;;;5075226;28;19934;-73
2023/09/12 01:18:46;;;;;;;;;;;23.20;99.90;;;;;;5093573;28;20417;-71
2023/09/12 01:21:12;;;;;;;;;;;23.10;99.90;;;;;;5093313;28;19908;-72
2023/09/12 01:23:53;;;;;;;;;;;23.10;99.90;;;;;;5093534;28;19908;-72
2023/09/12 01:26:26;;;;;;;;;;;23.10;99.90;;;;;;5093763;28;19908;-72
2023/09/12 01:28:54;;;;;;;;;;;23.10;99.90;;;;;;5093439;28;19916;-71
2023/09/12 01:31:21;;;;;;;;;;;23.10;99.90;;;;;;5093690;28;19960;-72
2023/09/12 01:33:47;;;;;;;;;;;23.10;99.90;;;;;;5093449;28;19942;-72
2023/09/12 01:36:13;;;;;;;;;;;23.10;99.90;;;;;;5093063;28;19908;-71
2023/09/12 01:38:38;;;;;;;;;;;23.10;99.90;;;;;;5074766;28;19928;-71
2023/09/12 01:41:04;;;;;;;;;;;23.10;99.90;;;;;;5093075;28;19909;-71
2023/09/12 01:43:31;;;;;;;;;;;23.10;99.90;;;;;;5092587;28;20291;-71
2023/09/12 01:45:58;;;;;;;;;;;23.10;99.90;;;;;;5093154;28;19916;-71
2023/09/12 01:48:26;;;;;;;;;;;23.00;99.90;;;;;;5092940;28;19912;-71
2023/09/12 01:50:52;;;;;;;;;;;23.00;99.90;;;;;;5093224;28;19971;-71
2023/09/12 01:53:19;;;;;;;;;;;23.00;99.90;;;;;;5092801;28;20356;-71
2023/09/12 01:55:45;;;;;;;;;;;22.90;99.90;;;;;;5092893;28;19908;-71
2023/09/12 01:58:11;;;;;;;;;;;22.90;99.90;;;;;;5092737;28;19924;-72
2023/09/12 02:00:37;;;;;;;;;;;23.00;99.90;;;;;;5074523;28;20010;-71
2023/09/12 02:03:03;;;;;;;;;;;23.00;99.90;;;;;;5092963;28;20098;-71
2023/09/12 02:05:29;;;;;;;;;;;22.90;99.90;;;;;;5093115;28;20369;-71
2023/09/12 02:07:55;;;;;;;;;;;22.90;99.90;;;;;;5092359;28;20306;-70
2023/09/12 02:10:21;;;;;;;;;;;22.90;99.90;;;;;;5074171;28;19908;-71
2023/09/12 02:12:47;;;;;;;;;;;22.90;99.90;;;;;;5092512;28;19919;-71
2023/09/12 02:15:13;;;;;;;;;;;22.90;99.90;;;;;;5092497;28;19908;-71
2023/09/12 02:17:38;;;;;;;;;;;22.90;99.90;;;;;;5092302;28;19927;-71
2023/09/12 02:20:06;;;;;;;;;;;22.90;99.90;;;;;;5092463;28;20263;-71
2023/09/12 02:22:32;;;;;;;;;;;23.00;99.90;;;;;;5092068;28;20305;-71
2023/09/12 02:24:57;;;;;;;;;;;22.90;99.90;;;;;;5092111;28;20015;-70
2023/09/12 02:27:23;;;;;;;;;;;22.90;99.90;;;;;;5091995;28;19908;-70
2023/09/12 02:29:49;;;;;;;;;;;23.00;99.90;;;;;;5074251;28;20264;-70
2023/09/12 02:32:15;;;;;;;;;;;22.90;99.90;;;;;;5091877;28;19912;-71
2023/09/12 02:34:41;;;;;;;;;;;23.00;99.90;;;;;;5092084;28;19999;-71
2023/09/12 02:37:06;;;;;;;;;;;22.90;99.90;;;;;;5091814;28;19908;-71
2023/09/12 02:39:32;;;;;;;;;;;23.00;99.90;;;;;;5091797;28;19924;-71
2023/09/12 02:41:58;;;;;;;;;;;22.90;99.90;;;;;;5092216;28;19912;-71
2023/09/12 02:44:24;;;;;;;;;;;22.90;99.90;;;;;;5091734;28;20298;-71
2023/09/12 02:46:50;;;;;;;;;;;23.00;99.90;;;;;;5091923;28;19987;-71
2023/09/12 02:49:16;;;;;;;;;;;22.90;99.90;;;;;;5091838;28;19976;-71
2023/09/12 02:51:42;;;;;;;;;;;22.90;99.90;;;;;;5091260;28;19908;-70
2023/09/12 02:54:08;;;;;;;;;;;22.80;99.90;;;;;;5091241;28;19976;-71
2023/09/12 02:56:34;;;;;;;;;;;22.80;99.90;;;;;;5091568;28;19908;-70
2023/09/12 02:59:00;;;;;;;;;;;22.90;99.90;;;;;;5091808;28;19951;-70
2023/09/12 03:01:27;;;;;;;;;;;22.90;99.90;;;;;;5073715;28;20383;-70
2023/09/12 03:03:54;;;;;;;;;;;23.00;99.90;;;;;;5091767;28;19959;-71
2023/09/12 03:06:20;;;;;;;;;;;22.90;99.90;;;;;;5091723;28;19908;-71
2023/09/12 03:08:46;;;;;;;;;;;22.90;99.90;;;;;;5092389;28;19956;-73
2023/09/12 03:11:12;;;;;;;;;;;22.90;99.90;;;;;;5091836;28;19909;-72
2023/09/12 03:13:40;;;;;;;;;;;22.80;99.90;;;;;;5092188;28;19919;-71
2023/09/12 03:16:09;;;;;;;;;;;22.80;99.90;;;;;;5091671;28;20372;-71
2023/09/12 03:18:36;;;;;;;;;;;22.80;99.90;;;;;;5073801;28;20011;-71
2023/09/12 03:21:02;;;;;;;;;;;22.80;99.90;;;;;;5091562;28;19912;-71
2023/09/12 03:23:28;;;;;;;;;;;22.70;99.90;;;;;;5091771;28;19940;-71
2023/09/12 03:25:54;;;;;;;;;;;22.70;99.90;;;;;;5093162;28;19950;-71
2023/09/12 03:28:20;;;;;;;;;;;22.70;99.90;;;;;;5074918;28;20010;-72
2023/09/12 03:30:45;;;;;;;;;;;22.60;99.90;;;;;;5074778;28;19909;-71
2023/09/12 03:33:11;;;;;;;;;;;22.50;99.90;;;;;;5093003;28;19908;-71
2023/09/12 03:35:37;;;;;;;;;;;22.50;99.90;;;;;;5093105;28;19931;-72
2023/09/12 03:38:03;;;;;;;;;;;22.60;99.90;;;;;;5091754;28;19920;-72
2023/09/12 03:40:32;;;;;;;;;;;22.60;99.90;;;;;;5092627;28;19919;-72
2023/09/12 03:42:58;;;;;;;;;;;22.50;99.90;;;;;;5092544;28;19912;-71
2023/09/12 03:45:24;;;;;;;;;;;22.40;99.90;;;;;;5092782;28;19909;-71
2023/09/12 03:47:50;;;;;;;;;;;22.40;99.90;;;;;;5092996;28;19937;-71
2023/09/12 03:50:16;;;;;;;;;;;22.40;99.90;;;;;;5092861;28;19908;-73
2023/09/12 03:52:42;;;;;;;;;;;22.30;99.90;;;;;;5092460;28;19931;-72
2023/09/12 03:55:08;;;;;;;;;;;22.30;99.90;;;;;;5093043;28;19908;-71
2023/09/12 03:57:34;;;;;;;;;;;22.20;99.90;;;;;;5092452;28;19934;-71
2023/09/12 04:00:00;;;;;;;;;;;22.30;99.90;;;;;;5092593;28;19915;-72
2023/09/12 04:02:26;;;;;;;;;;;22.20;99.90;;;;;;5092718;28;19915;-71
2023/09/12 04:04:51;;;;;;;;;;;22.30;99.90;;;;;;5092902;28;20320;-73
2023/09/12 04:07:18;;;;;;;;;;;22.30;99.90;;;;;;5097561;28;20337;-71
2023/09/12 04:09:44;;;;;;;;;;;22.30;99.90;;;;;;5099007;28;19908;-71
2023/09/12 04:12:09;;;;;;;;;;;22.30;99.90;;;;;;5099215;28;19969;-72
2023/09/12 04:14:36;;;;;;;;;;;22.40;99.90;;;;;;5099053;28;19908;-72
2023/09/12 04:17:01;;;;;;;;;;;22.40;99.90;;;;;;5099152;28;19908;-71
2023/09/12 04:19:27;;;;;;;;;;;22.50;99.90;;;;;;5099508;28;19922;-71
2023/09/12 04:21:53;;;;;;;;;;;22.50;99.90;;;;;;5099710;28;20102;-71
2023/09/12 04:24:19;;;;;;;;;;;22.50;99.90;;;;;;5099968;28;20366;-71
2023/09/12 04:26:45;;;;;;;;;;;22.50;99.90;;;;;;5099550;28;19908;-71
2023/09/12 04:29:11;;;;;;;;;;;22.40;99.90;;;;;;5099482;28;20348;-71
2023/09/12 04:31:36;;;;;;;;;;;22.30;99.90;;;;;;5099776;28;20318;-72
2023/09/12 04:34:02;;;;;;;;;;;22.30;99.90;;;;;;5100000;28;19908;-72
2023/09/12 04:36:28;;;;;;;;;;;22.30;99.90;;;;;;5099479;28;20360;-72
2023/09/12 04:38:54;;;;;;;;;;;22.30;99.90;;;;;;5098900;28;19920;-71
2023/09/12 04:41:20;;;;;;;;;;;22.30;99.90;;;;;;5098849;28;19933;-72
2023/09/12 04:43:46;;;;;;;;;;;22.40;99.90;;;;;;5099108;28;19961;-72
2023/09/12 04:46:12;;;;;;;;;;;22.30;99.90;;;;;;5099338;28;20266;-72
2023/09/12 04:48:38;;;;;;;;;;;22.10;99.90;;;;;;5098928;28;19996;-71
2023/09/12 04:51:04;;;;;;;;;;;22.00;99.90;;;;;;5099355;28;20004;-72
2023/09/12 04:53:36;;;;;;;;;;;22.00;99.90;;;;;;5098647;28;19983;-72
2023/09/12 04:56:02;;;;;;;;;;;22.00;99.90;;;;;;5099002;28;19912;-72
2023/09/12 04:58:28;;;;;;;;;;;22.00;99.90;;;;;;5098906;28;20005;-71
2023/09/12 05:00:55;;;;;;;;;;;22.10;99.90;;;;;;5080658;28;19948;-70
2023/09/12 05:03:21;;;;;;;;;;;22.10;99.90;;;;;;5098919;28;19912;-72
2023/09/12 05:05:47;;;;;;;;;;;22.10;99.90;;;;;;5099242;28;19908;-71
2023/09/12 05:08:13;;;;;;;;;;;22.10;99.90;;;;;;5098842;28;19931;-71
2023/09/12 05:10:39;;;;;;;;;;;22.10;99.90;;;;;;5099326;28;20367;-72
2023/09/12 05:13:05;;;;;;;;;;;22.20;99.90;;;;;;5098962;28;19908;-72
2023/09/12 05:15:31;;;;;;;;;;;22.30;99.90;;;;;;5099300;28;19935;-72
2023/09/12 05:17:56;;;;;;;;;;;22.50;99.90;;;;;;5097938;28;20372;-72
2023/09/12 05:20:22;;;;;;;;;;;22.50;99.90;;;;;;5096417;28;19923;-73
2023/09/12 05:22:48;;;;;;;;;;;22.60;99.90;;;;;;5095549;28;20345;-72
2023/09/12 05:25:14;;;;;;;;;;;22.80;99.90;;;;;;5095909;28;19908;-72
2023/09/12 05:27:40;;;;;;;;;;;22.80;99.90;;;;;;5095663;28;19908;-72
2023/09/12 05:30:06;;;;;;;;;;;23.00;99.90;;;;;;5077404;28;19966;-72
2023/09/12 05:32:32;;;;;;;;;;;23.20;99.90;;;;;;5095576;28;19962;-72
2023/09/12 05:34:57;;;;;;;;;;;24.00;99.90;;;;;;5095503;28;19908;-72
2023/09/12 05:37:23;;;;;;;;;;;25.40;99.90;;;;;;5076661;28;19919;-72
2023/09/12 05:39:49;;;;;;;;;;;26.80;99.90;;;;;;5095255;28;19966;-73
2023/09/12 05:42:20;;;;;;;;;;;27.50;99.90;;;;;;5095845;28;20379;-71
2023/09/12 05:44:47;;;;;;;;;;;28.20;99.90;;;;;;5095344;28;19934;-69
2023/09/12 05:47:13;;;;;;;;;;;29.00;99.90;;;;;;5094367;28;20015;-72
2023/09/12 05:49:39;;;;;;;;;;;29.30;99.90;;;;;;5093960;28;19934;-73
2023/09/12 05:52:05;;;;;;;;;;;29.60;99.90;;;;;;5093988;28;19912;-71
2023/09/12 05:54:31;;;;;;;;;;;29.80;99.90;;;;;;5075865;28;19958;-71
2023/09/12 05:56:57;;;;;;;;;;;30.30;99.90;;;;;;5094236;28;19965;-72
2023/09/12 05:59:23;;;;;;;;;;;31.20;99.90;;;;;;5093895;28;19960;-72
2023/09/12 06:01:48;;;;;;;;;;;31.20;99.90;;;;;;5094180;28;19915;-72
2023/09/12 06:04:14;;;;;;;;;;;31.70;99.90;;;;;;5093659;28;20426;-72
2023/09/12 06:06:40;;;;;;;;;;;32.10;99.90;;;;;;5094268;28;20336;-72
2023/09/12 06:09:06;;;;;;;;;;;32.60;99.90;;;;;;5094189;28;19908;-73
2023/09/12 06:11:32;;;;;;;;;;;33.00;99.90;;;;;;5094312;28;19915;-73
2023/09/12 06:13:58;;;;;;;;;;;33.60;99.90;;;;;;5093827;28;19985;-72
2023/09/12 06:16:24;;;;;;;;;;;33.80;99.90;;;;;;5094281;28;20029;-73
2023/09/12 06:18:49;;;;;;;;;;;33.10;99.90;;;;;;5094794;28;20368;-72
2023/09/12 06:21:15;;;;;;;;;;;32.20;99.90;;;;;;5094886;28;19954;-73
2023/09/12 06:23:41;;;;;;;;;;;31.70;99.90;;;;;;5094279;28;19909;-72
2023/09/12 06:26:07;;;;;;;;;;;31.80;99.90;;;;;;5094575;28;20006;-72
2023/09/12 06:28:33;;;;;;;;;;;31.50;99.90;;;;;;5094300;28;19931;-72
2023/09/12 06:30:58;;;;;;;;;;;30.80;99.90;;;;;;5094701;28;20006;-72
2023/09/12 06:33:25;;;;;;;;;;;29.40;99.90;;;;;;5094534;28;19951;-73
2023/09/12 06:35:54;;;;;;;;;;;28.90;99.90;;;;;;5076154;28;19908;-73
2023/09/12 06:38:21;;;;;;;;;;;28.90;99.90;;;;;;5094074;28;19920;-72
2023/09/12 06:40:47;;;;;;;;;;;29.40;99.90;;;;;;5094489;28;19908;-72
2023/09/12 06:43:13;;;;;;;;;;;29.00;99.90;;;;;;5094114;28;20331;-72
2023/09/12 06:45:43;;;;;;;;;;;29.40;99.90;;;;;;5075630;28;19949;-73
2023/09/12 06:48:09;;;;;;;;;;;29.80;99.90;;;;;;5094070;28;19977;-72
2023/09/12 06:50:37;;;;;;;;;;;30.40;99.90;;;;;;5094329;28;20363;-73
2023/09/12 06:53:03;;;;;;;;;;;30.60;99.90;;;;;;5075925;28;19909;-74
2023/09/12 06:55:29;;;;;;;;;;;31.20;99.90;;;;;;5094208;28;19912;-73
2023/09/12 06:57:55;;;;;;;;;;;31.00;99.90;;;;;;5093732;28;20014;-73
2023/09/12 07:00:21;;;;;;;;;;;30.90;99.90;;;;;;5075957;28;20006;-73
2023/09/12 07:02:46;;;;;;;;;;;30.80;99.90;;;;;;5094289;28;20284;-73
2023/09/12 07:05:12;;;;;;;;;;;31.70;99.90;;;;;;5094073;28;19953;-73
2023/09/12 07:07:38;;;;;;;;;;;31.30;99.90;;;;;;5094688;28;20304;-73
2023/09/12 07:10:04;;;;;;;;;;;30.30;99.90;;;;;;5075829;28;19961;-72
2023/09/12 07:12:32;;;;;;;;;;;31.00;99.90;;;;;;5094493;28;20292;-73
2023/09/12 07:14:58;;;;;;;;;;;30.40;99.90;;;;;;5093993;28;19915;-71
2023/09/12 07:17:24;;;;;;;;;;;30.40;99.90;;;;;;5093853;28;19912;-73
2023/09/12 07:19:51;;;;;;;;;;;31.40;99.90;;;;;;5094518;28;19916;-73
2023/09/12 07:22:16;;;;;;;;;;;31.30;99.90;;;;;;5093863;28;19915;-73
2023/09/12 07:24:42;;;;;;;;;;;31.40;99.90;;;;;;5075625;28;19908;-73
2023/09/12 07:27:08;;;;;;;;;;;32.70;99.90;;;;;;5093670;28;20304;-73
2023/09/12 07:29:34;;;;;;;;;;;33.60;99.90;;;;;;5093524;28;19908;-73
2023/09/12 07:31:59;;;;;;;;;;;34.10;99.90;;;;;;5093981;28;19912;-73
2023/09/12 07:34:25;;;;;;;;;;;33.90;99.90;;;;;;5093912;28;19957;-73
2023/09/12 07:36:51;;;;;;;;;;;33.40;99.90;;;;;;5093934;28;19912;-73
2023/09/12 07:39:17;;;;;;;;;;;33.70;99.90;;;;;;5093004;28;19920;-73
2023/09/12 07:41:43;;;;;;;;;;;33.70;99.90;;;;;;5093007;28;20022;-73
2023/09/12 07:44:11;;;;;;;;;;;33.70;99.90;;;;;;5093203;28;20310;-71
2023/09/12 07:46:40;;;;;;;;;;;33.50;99.90;;;;;;5093285;28;20306;-74
2023/09/12 07:49:07;;;;;;;;;;;33.70;99.90;;;;;;5092316;28;19916;-73
2023/09/12 07:51:33;;;;;;;;;;;33.40;99.90;;;;;;5092544;28;19962;-72
2023/09/12 07:53:59;;;;;;;;;;;33.10;99.90;;;;;;5092132;28;19912;-73
2023/09/12 07:56:25;;;;;;;;;;;33.20;99.90;;;;;;5092686;28;20264;-72
2023/09/12 07:58:51;;;;;;;;;;;33.00;99.90;;;;;;5092170;28;19931;-74
2023/09/12 08:01:17;;;;;;;;;;;32.50;99.90;;;;;;5074094;28;20337;-73
2023/09/12 08:03:43;;;;;;;;;;;32.80;99.90;;;;;;5073734;28;19912;-72
2023/09/12 08:06:09;;;;;;;;;;;32.90;99.90;;;;;;5092465;28;20361;-73
2023/09/12 08:08:35;;;;;;;;;;;32.70;99.90;;;;;;5092066;28;20384;-73
2023/09/12 08:11:01;;;;;;;;;;;32.60;99.90;;;;;;5092728;28;19986;-73
2023/09/12 08:13:28;;;;;;;;;;;32.90;99.90;;;;;;5092324;28;20271;-73
2023/09/12 08:15:54;;;;;;;;;;;32.90;99.90;;;;;;5092296;28;20372;-73
2023/09/12 08:18:21;;;;;;;;;;;33.30;99.90;;;;;;5092859;28;19959;-74
2023/09/12 08:20:47;;;;;;;;;;;33.10;99.90;;;;;;5093134;28;19908;-73
2023/09/12 08:23:13;;;;;;;;;;;33.50;99.90;;;;;;5092748;28;19909;-73
2023/09/12 08:25:39;;;;;;;;;;;33.00;99.90;;;;;;5092926;28;20222;-73
2023/09/12 08:28:05;;;;;;;;;;;33.00;99.90;;;;;;5093279;28;19974;-73
2023/09/12 08:30:32;;;;;;;;;;;32.70;99.90;;;;;;5093010;28;19908;-73
2023/09/12 08:32:58;;;;;;;;;;;32.40;99.90;;;;;;5093750;28;19912;-72
2023/09/12 08:35:26;;;;;;;;;;;32.60;99.90;;;;;;5074793;28;19908;-73
2023/09/12 08:37:52;;;;;;;;;;;33.00;99.90;;;;;;5092475;28;19921;-73
2023/09/12 08:40:18;;;;;;;;;;;33.10;99.90;;;;;;5092872;28;19908;-73
2023/09/12 08:42:44;;;;;;;;;;;32.90;99.90;;;;;;5093093;28;20375;-73
2023/09/12 08:45:16;;;;;;;;;;;32.20;99.90;;;;;;5092556;28;19916;-73
2023/09/12 08:47:43;;;;;;;;;;;32.20;99.90;;;;;;5093245;28;20302;-73
2023/09/12 08:50:10;;;;;;;;;;;32.10;99.90;;;;;;5092616;28;19962;-74
2023/09/12 08:52:36;;;;;;;;;;;32.10;99.90;;;;;;5074867;28;20348;-73
2023/09/12 08:55:03;;;;;;;;;;;31.90;99.90;;;;;;5077690;28;19908;-73
2023/09/12 08:57:30;;;;;;;;;;;31.90;99.90;;;;;;5077473;28;20359;-73
2023/09/12 08:59:56;;;;;;;;;;;31.70;99.90;;;;;;5095787;28;19908;-73
2023/09/12 09:02:22;;;;;;;;;;;32.00;99.90;;;;;;5095432;28;20006;-73
2023/09/12 09:04:49;;;;;;;;;;;32.00;99.90;;;;;;5077292;28;19908;-73
2023/09/12 09:07:16;;;;;;;;;;;31.90;99.90;;;;;;5095671;28;19953;-73
2023/09/12 09:09:43;;;;;;;;;;;31.60;99.90;;;;;;5095798;28;19908;-73
2023/09/12 09:12:10;;;;;;;;;;;31.60;99.90;;;;;;5076988;28;19972;-73
2023/09/12 09:14:36;;;;;;;;;;;31.50;99.90;;;;;;5095164;28;19908;-73
2023/09/12 09:17:02;;;;;;;;;;;31.40;99.90;;;;;;5095207;28;19908;-73
2023/09/12 09:19:41;;;;;;;;;;;31.30;99.90;;;;;;5095141;28;19992;-73
2023/09/12 09:22:07;;;;;;;;;;;31.00;99.90;;;;;;5094598;28;19912;-73
2023/09/12 09:24:33;;;;;;;;;;;30.80;99.90;;;;;;5095443;28;19908;-73
2023/09/12 09:27:00;;;;;;;;;;;30.80;99.90;;;;;;5095219;28;19915;-72
2023/09/12 09:29:31;;;;;;;;;;;31.10;99.90;;;;;;5095941;28;20245;-72
2023/09/12 09:31:59;;;;;;;;;;;30.90;99.90;;;;;;5095567;28;19915;-72
2023/09/12 09:34:27;;;;;;;;;;;31.20;99.90;;;;;;5095386;28;19908;-72
2023/09/12 09:36:54;;;;;;;;;;;31.20;99.90;;;;;;5094980;28;20425;-72
2023/09/12 09:39:23;;;;;;;;;;;31.00;99.90;;;;;;5094398;28;19924;-72
2023/09/12 09:41:50;;;;;;;;;;;31.10;99.90;;;;;;5094993;28;19920;-73
2023/09/12 09:44:16;;;;;;;;;;;30.90;99.90;;;;;;5094180;28;19908;-73
2023/09/12 09:46:45;;;;;;;;;;;30.60;99.90;;;;;;5095092;28;20413;-72
2023/09/12 09:49:11;;;;;;;;;;;30.70;99.90;;;;;;5094632;28;19927;-72
2023/09/12 09:51:41;;;;;;;;;;;30.60;99.90;;;;;;5094588;28;19908;-73
2023/09/12 09:54:08;;;;;;;;;;;30.70;99.90;;;;;;5094493;28;19915;-72
2023/09/12 09:56:44;;;;;;;;;;;30.60;99.90;;;;;;5094536;28;20246;-73
2023/09/12 09:59:13;;;;;;;;;;;30.60;99.90;;;;;;5094785;28;19927;-72
2023/09/12 10:01:40;;;;;;;;;;;30.40;99.90;;;;;;5094788;28;19938;-72
2023/09/12 10:04:06;;;;;;;;;;;30.50;99.90;;;;;;5094240;28;19919;-73
2023/09/12 10:06:34;;;;;;;;;;;30.60;99.90;;;;;;5094758;28;19908;-72
2023/09/12 10:09:00;;;;;;;;;;;30.70;99.90;;;;;;5095030;28;19912;-73
2023/09/12 10:11:28;;;;;;;;;;;30.50;99.90;;;;;;5094620;28;19961;-73
2023/09/12 10:13:57;;;;;;;;;;;30.60;99.90;;;;;;5076131;28;19914;-72
2023/09/12 10:16:30;;;;;;;;;;;30.20;99.90;;;;;;5094487;28;19908;-74
2023/09/12 10:19:10;;;;;;;;;;;30.00;99.90;;;;;;5095047;28;19962;-72
2023/09/12 10:21:37;;;;;;;;;;;30.20;99.90;;;;;;5076581;28;20360;-73
2023/09/12 10:24:03;;;;;;;;;;;30.30;99.90;;;;;;5094949;28;19954;-73
2023/09/12 10:26:31;;;;;;;;;;;30.30;99.90;;;;;;5076706;28;19908;-74
2023/09/12 10:28:57;;;;;;;;;;;30.20;99.90;;;;;;5076280;28;19915;-72
2023/09/12 10:31:24;;;;;;;;;;;30.00;99.90;;;;;;5094623;28;19911;-72
2023/09/12 10:33:50;;;;;;;;;;;30.30;99.90;;;;;;5094534;28;19908;-71
2023/09/12 10:36:17;;;;;;;;;;;30.20;99.90;;;;;;5094215;28;19916;-71
2023/09/12 10:38:44;;;;;;;;;;;30.20;99.90;;;;;;5093623;28;20010;-71
2023/09/12 10:41:14;;;;;;;;;;;30.30;99.90;;;;;;5075826;28;19912;-72
2023/09/12 10:43:43;;;;;;;;;;;30.30;99.90;;;;;;5094599;28;20272;-71
2023/09/12 10:46:09;;;;;;;;;;;30.30;99.90;;;;;;5094127;28;19909;-72
2023/09/12 10:48:36;;;;;;;;;;;30.30;99.90;;;;;;5094284;28;20353;-73
2023/09/12 10:51:04;;;;;;;;;;;30.30;99.90;;;;;;5093619;28;20372;-73
2023/09/12 10:53:30;;;;;;;;;;;30.30;99.90;;;;;;5093394;28;19912;-73
2023/09/12 10:56:16;;;;;;;;;;;30.20;99.90;;;;;;5093815;28;20340;-73
2023/09/12 10:59:01;;;;;;;;;;;30.10;99.90;;;;;;5093913;28;19995;-73
2023/09/12 11:01:27;;;;;;;;;;;30.40;99.90;;;;;;5093013;28;20364;-74
2023/09/12 11:03:53;;;;;;;;;;;30.60;99.90;;;;;;5094075;28;19969;-72
2023/09/12 11:06:22;;;;;;;;;;;31.00;99.90;;;;;;5093676;28;19933;-73
2023/09/12 11:09:07;;;;;;;;;;;31.00;99.90;;;;;;5093600;28;20244;-74
2023/09/12 11:11:33;;;;;;;;;;;31.10;99.90;;;;;;5093767;28;20445;-73
2023/09/12 11:14:05;;;;;;;;;;;31.00;99.90;;;;;;5093649;28;19908;-74
2023/09/12 11:16:38;;;;;;;;;;;31.00;99.90;;;;;;5093684;28;20309;-73
2023/09/12 11:19:15;;;;;;;;;;;31.00;99.90;;;;;;5093763;28;19973;-73
2023/09/12 11:21:46;;;;;;;;;;;30.80;99.90;;;;;;5093786;28;20001;-73
2023/09/12 11:24:12;;;;;;;;;;;30.90;99.90;;;;;;5093964;28;20348;-74
2023/09/12 11:26:57;;;;;;;;;;;31.00;99.90;;;;;;5093593;28;20372;-73
2023/09/12 11:29:28;;;;;;;;;;;31.00;99.90;;;;;;5093636;28;19947;-74
2023/09/12 11:31:58;;;;;;;;;;;31.20;99.90;;;;;;5093311;28;19915;-73
2023/09/12 11:34:31;;;;;;;;;;;31.20;99.90;;;;;;5093481;28;19908;-73
2023/09/12 11:37:03;;;;;;;;;;;31.00;99.90;;;;;;5093545;28;19908;-73
2023/09/12 11:39:30;;;;;;;;;;;30.60;99.90;;;;;;5093291;28;20283;-73
2023/09/12 11:41:57;;;;;;;;;;;30.80;99.90;;;;;;5094045;28;19914;-73
2023/09/12 11:44:24;;;;;;;;;;;30.90;99.90;;;;;;5093509;28;19908;-73
2023/09/12 11:46:50;;;;;;;;;;;30.80;99.90;;;;;;5093713;28;19978;-73
2023/09/12 11:49:16;;;;;;;;;;;31.10;99.90;;;;;;5075093;28;20228;-73
2023/09/12 11:51:49;;;;;;;;;;;31.00;99.90;;;;;;5092829;28;19909;-74
2023/09/12 11:54:17;;;;;;;;;;;31.10;99.90;;;;;;5092877;28;19973;-73
2023/09/12 11:56:42;;;;;;;;;;;31.10;99.90;;;;;;5093250;28;20432;-74
2023/09/12 11:59:08;;;;;;;;;;;31.30;99.90;;;;;;5092923;28;20026;-73
2023/09/12 12:01:34;;;;;;;;;;;31.30;99.90;;;;;;5093387;28;19990;-73
2023/09/12 12:04:00;;;;;;;;;;;31.40;99.90;;;;;;5092838;28;19919;-73
2023/09/12 12:06:26;;;;;;;;;;;31.50;99.90;;;;;;5092859;28;19908;-73
2023/09/12 12:08:54;;;;;;;;;;;31.60;99.90;;;;;;5092118;28;19915;-73
2023/09/12 12:11:20;;;;;;;;;;;31.60;99.90;;;;;;5093369;28;19998;-73
2023/09/12 12:13:46;;;;;;;;;;;31.90;99.90;;;;;;5093029;28;20435;-73
2023/09/12 12:16:16;;;;;;;;;;;31.70;99.90;;;;;;5092929;28;19908;-73
2023/09/12 12:18:43;;;;;;;;;;;31.60;99.90;;;;;;5074325;28;19916;-72
2023/09/12 12:21:09;;;;;;;;;;;31.40;99.90;;;;;;5093403;28;19915;-73
2023/09/12 12:23:35;;;;;;;;;;;31.60;99.90;;;;;;5074960;28;19912;-73
2023/09/12 12:26:10;;;;;;;;;;;31.70;99.90;;;;;;5093150;28;19973;-73
2023/09/12 12:28:37;;;;;;;;;;;31.50;99.90;;;;;;5096598;28;20340;-73
2023/09/12 12:31:03;;;;;;;;;;;31.40;99.90;;;;;;5097431;28;19908;-73
2023/09/12 12:33:28;;;;;;;;;;;31.30;99.90;;;;;;5097613;28;19908;-73
2023/09/12 12:36:04;;;;;;;;;;;31.20;99.90;;;;;;5097526;28;19923;-73
2023/09/12 12:38:36;;;;;;;;;;;31.30;99.90;;;;;;5097040;28;20019;-74
2023/09/12 12:41:02;;;;;;;;;;;31.30;99.90;;;;;;5078828;28;19934;-73
2023/09/12 12:43:27;;;;;;;;;;;31.20;99.90;;;;;;5097013;28;20260;-73
2023/09/12 12:45:54;;;;;;;;;;;30.80;99.90;;;;;;5097444;28;19908;-75
2023/09/12 12:48:29;;;;;;;;;;;30.80;99.90;;;;;;5078586;28;19970;-74
2023/09/12 12:50:55;;;;;;;;;;;30.60;99.90;;;;;;5097231;28;20280;-74
2023/09/12 12:53:36;;;;;;;;;;;30.50;99.90;;;;;;5096476;28;20410;-73
2023/09/12 12:56:02;;;;;;;;;;;30.40;99.90;;;;;;5078290;28;19953;-73
2023/09/12 12:58:28;;;;;;;;;;;30.70;99.90;;;;;;5096495;28;20007;-73
2023/09/12 13:00:54;;;;;;;;;;;30.60;99.90;;;;;;5096663;28;20388;-74
2023/09/12 13:03:20;;;;;;;;;;;30.70;99.90;;;;;;5096489;28;19908;-73
2023/09/12 13:05:45;;;;;;;;;;;30.70;99.90;;;;;;5096558;28;19934;-73
2023/09/12 13:08:11;;;;;;;;;;;30.60;99.90;;;;;;5096594;28;20053;-74
2023/09/12 13:10:37;;;;;;;;;;;30.60;99.90;;;;;;5096710;28;19915;-73
2023/09/12 13:13:03;;;;;;;;;;;30.50;99.90;;;;;;5096830;28;19908;-73
2023/09/12 13:15:30;;;;;;;;;;;30.60;99.90;;;;;;5078068;28;19966;-73
2023/09/12 13:17:55;;;;;;;;;;;30.50;99.90;;;;;;5096250;28;20015;-73
2023/09/12 13:20:21;;;;;;;;;;;30.50;99.90;;;;;;5096530;28;19944;-73
2023/09/12 13:22:47;;;;;;;;;;;30.50;99.90;;;;;;5096193;28;19934;-73
2023/09/12 13:25:13;;;;;;;;;;;30.60;99.90;;;;;;5096770;28;19915;-73
2023/09/12 13:27:38;;;;;;;;;;;30.50;99.90;;;;;;5096508;28;19949;-73
2023/09/12 13:30:05;;;;;;;;;;;30.60;99.90;;;;;;5078064;28;20364;-73
2023/09/12 13:32:32;;;;;;;;;;;30.70;99.90;;;;;;5078014;28;20351;-73
2023/09/12 13:35:00;;;;;;;;;;;30.50;99.90;;;;;;5096181;28;19931;-73
2023/09/12 13:37:27;;;;;;;;;;;30.40;99.90;;;;;;5096321;28;19908;-74
2023/09/12 13:39:53;;;;;;;;;;;30.40;99.90;;;;;;5094192;28;19931;-74
2023/09/12 13:42:19;;;;;;;;;;;30.10;99.90;;;;;;5095949;28;19934;-73
2023/09/12 13:44:47;;;;;;;;;;;30.20;99.90;;;;;;5095790;28;20348;-72
2023/09/12 13:47:13;;;;;;;;;;;30.30;99.90;;;;;;5077315;28;19909;-71
2023/09/12 13:49:39;;;;;;;;;;;30.10;99.90;;;;;;5076972;28;20370;-73
2023/09/12 13:52:05;;;;;;;;;;;30.00;99.90;;;;;;5095191;28;19995;-72
2023/09/12 13:54:30;;;;;;;;;;;29.90;99.90;;;;;;5094928;28;19916;-71
2023/09/12 13:56:56;;;;;;;;;;;30.00;99.90;;;;;;5095461;28;19908;-73
2023/09/12 13:59:22;;;;;;;;;;;29.80;99.90;;;;;;5095064;28;19923;-72
2023/09/12 14:01:48;;;;;;;;;;;29.80;99.90;;;;;;5095666;28;20378;-72
2023/09/12 14:04:16;;;;;;;;;;;29.90;99.90;;;;;;5076958;28;19995;-72
2023/09/12 14:06:41;;;;;;;;;;;30.00;99.90;;;;;;5094690;28;19999;-72
2023/09/12 14:09:07;;;;;;;;;;;30.00;99.90;;;;;;5094920;28;20002;-72
2023/09/12 14:11:33;;;;;;;;;;;29.90;99.90;;;;;;5095094;28;19934;-71
2023/09/12 14:13:59;;;;;;;;;;;30.10;99.90;;;;;;5094840;28;19960;-73